sensor_id;sensor_type;location;lat;lon;timestamp;P1;durP1;ratioP1;P2;durP2;ratioP2
9459;SDS011;4768;42.664;23.240;2022-11-30T00:01:10;15.80;;;9.13;;
9459;SDS011;4768;42.664;23.240;2022-11-30T00:03:38;13.40;;;10.27;;
9459;SDS011;4768;42.664;23.240;2022-11-30T00:06:05;14.23;;;10.13;;
9459;SDS011;4768;42.664;23.240;2022-11-30T00:08:33;13.43;;;9.90;;
9459;SDS011;4768;42.664;23.240;2022-11-30T00:11:05;15.23;;;10.60;;
9459;SDS011;4768;42.664;23.240;2022-11-30T00:13:34;15.93;;;11.60;;
9459;SDS011;4768;42.664;23.240;2022-11-30T00:16:01;20.13;;;12.70;;
9459;SDS011;4768;42.664;23.240;2022-11-30T00:18:28;20.10;;;13.03;;
9459;SDS011;4768;42.664;23.240;2022-11-30T00:20:57;21.70;;;14.47;;
9459;SDS011;4768;42.664;23.240;2022-11-30T00:23:25;23.80;;;16.07;;
9459;SDS011;4768;42.664;23.240;2022-11-30T00:25:52;24.60;;;15.40;;
9459;SDS011;4768;42.664;23.240;2022-11-30T00:28:18;24.20;;;16.30;;
9459;SDS011;4768;42.664;23.240;2022-11-30T00:30:47;25.43;;;17.53;;
9459;SDS011;4768;42.664;23.240;2022-11-30T00:33:22;28.93;;;17.57;;
9459;SDS011;4768;42.664;23.240;2022-11-30T00:35:54;31.43;;;19.70;;
9459;SDS011;4768;42.664;23.240;2022-11-30T00:38:21;30.33;;;19.10;;
9459;SDS011;4768;42.664;23.240;2022-11-30T00:40:48;63.57;;;20.43;;
9459;SDS011;4768;42.664;23.240;2022-11-30T00:43:14;31.57;;;17.87;;
9459;SDS011;4768;42.664;23.240;2022-11-30T00:45:41;96.37;;;19.70;;
9459;SDS011;4768;42.664;23.240;2022-11-30T00:48:09;57.10;;;17.23;;
9459;SDS011;4768;42.664;23.240;2022-11-30T00:50:36;73.17;;;15.77;;
9459;SDS011;4768;42.664;23.240;2022-11-30T00:53:03;0.73;;;0.40;;
9459;SDS011;4768;42.664;23.240;2022-11-30T00:55:30;0.50;;;0.50;;
9459;SDS011;4768;42.664;23.240;2022-11-30T00:57:57;0.20;;;0.20;;
9459;SDS011;4768;42.664;23.240;2022-11-30T01:00:24;0.40;;;0.40;;
9459;SDS011;4768;42.664;23.240;2022-11-30T01:02:52;0.30;;;0.30;;
9459;SDS011;4768;42.664;23.240;2022-11-30T01:05:20;0.07;;;0.07;;
9459;SDS011;4768;42.664;23.240;2022-11-30T01:07:47;0.00;;;0.00;;
9459;SDS011;4768;42.664;23.240;2022-11-30T01:10:14;2.27;;;0.77;;
9459;SDS011;4768;42.664;23.240;2022-11-30T01:12:41;0.00;;;0.00;;
9459;SDS011;4768;42.664;23.240;2022-11-30T01:15:08;0.20;;;0.20;;
9459;SDS011;4768;42.664;23.240;2022-11-30T01:17:36;0.00;;;0.00;;
9459;SDS011;4768;42.664;23.240;2022-11-30T01:20:02;0.00;;;0.00;;
9459;SDS011;4768;42.664;23.240;2022-11-30T01:22:31;0.00;;;0.00;;
9459;SDS011;4768;42.664;23.240;2022-11-30T01:24:58;0.20;;;0.20;;
9459;SDS011;4768;42.664;23.240;2022-11-30T01:27:25;0.00;;;0.00;;
9459;SDS011;4768;42.664;23.240;2022-11-30T01:29:51;0.10;;;0.10;;
9459;SDS011;4768;42.664;23.240;2022-11-30T01:32:18;0.10;;;0.10;;
9459;SDS011;4768;42.664;23.240;2022-11-30T01:34:45;0.00;;;0.00;;
9459;SDS011;4768;42.664;23.240;2022-11-30T01:37:12;0.40;;;0.40;;
9459;SDS011;4768;42.664;23.240;2022-11-30T01:39:40;0.00;;;0.00;;
9459;SDS011;4768;42.664;23.240;2022-11-30T01:42:09;0.10;;;0.10;;
9459;SDS011;4768;42.664;23.240;2022-11-30T01:44:50;0.00;;;0.00;;
9459;SDS011;4768;42.664;23.240;2022-11-30T01:47:23;0.10;;;0.10;;
9459;SDS011;4768;42.664;23.240;2022-11-30T01:49:54;0.00;;;0.00;;
9459;SDS011;4768;42.664;23.240;2022-11-30T01:52:25;0.00;;;0.00;;
9459;SDS011;4768;42.664;23.240;2022-11-30T01:54:56;0.00;;;0.00;;
9459;SDS011;4768;42.664;23.240;2022-11-30T01:57:26;0.00;;;0.00;;
9459;SDS011;4768;42.664;23.240;2022-11-30T02:00:00;0.13;;;0.13;;
9459;SDS011;4768;42.664;23.240;2022-11-30T02:02:31;0.20;;;0.20;;
9459;SDS011;4768;42.664;23.240;2022-11-30T02:05:07;0.20;;;0.20;;
9459;SDS011;4768;42.664;23.240;2022-11-30T02:07:35;0.13;;;0.10;;
9459;SDS011;4768;42.664;23.240;2022-11-30T02:10:05;0.30;;;0.30;;
9459;SDS011;4768;42.664;23.240;2022-11-30T02:12:33;0.00;;;0.00;;
9459;SDS011;4768;42.664;23.240;2022-11-30T02:15:08;0.10;;;0.10;;
9459;SDS011;4768;42.664;23.240;2022-11-30T02:17:41;0.23;;;0.20;;
9459;SDS011;4768;42.664;23.240;2022-11-30T02:20:32;0.00;;;0.00;;
9459;SDS011;4768;42.664;23.240;2022-11-30T02:23:16;0.13;;;0.07;;
9459;SDS011;4768;42.664;23.240;2022-11-30T02:25:55;0.10;;;0.10;;
9459;SDS011;4768;42.664;23.240;2022-11-30T02:28:42;0.33;;;0.20;;
9459;SDS011;4768;42.664;23.240;2022-11-30T02:31:22;0.00;;;0.00;;
9459;SDS011;4768;42.664;23.240;2022-11-30T02:33:53;0.00;;;0.00;;
9459;SDS011;4768;42.664;23.240;2022-11-30T02:36:23;0.00;;;0.00;;
9459;SDS011;4768;42.664;23.240;2022-11-30T02:38:51;0.40;;;0.40;;
9459;SDS011;4768;42.664;23.240;2022-11-30T02:41:18;0.40;;;0.40;;
9459;SDS011;4768;42.664;23.240;2022-11-30T02:43:46;0.00;;;0.00;;
9459;SDS011;4768;42.664;23.240;2022-11-30T02:46:13;0.00;;;0.00;;
9459;SDS011;4768;42.664;23.240;2022-11-30T02:48:46;0.00;;;0.00;;
9459;SDS011;4768;42.664;23.240;2022-11-30T02:51:19;0.00;;;0.00;;
9459;SDS011;4768;42.664;23.240;2022-11-30T02:53:49;0.00;;;0.00;;
9459;SDS011;4768;42.664;23.240;2022-11-30T02:56:17;0.00;;;0.00;;
9459;SDS011;4768;42.664;23.240;2022-11-30T02:58:47;0.17;;;0.17;;
9459;SDS011;4768;42.664;23.240;2022-11-30T03:01:14;0.00;;;0.00;;
9459;SDS011;4768;42.664;23.240;2022-11-30T03:03:41;0.10;;;0.10;;
9459;SDS011;4768;42.664;23.240;2022-11-30T03:06:09;0.00;;;0.00;;
9459;SDS011;4768;42.664;23.240;2022-11-30T03:08:35;0.00;;;0.00;;
9459;SDS011;4768;42.664;23.240;2022-11-30T03:11:02;0.10;;;0.03;;
9459;SDS011;4768;42.664;23.240;2022-11-30T03:13:29;0.00;;;0.00;;
9459;SDS011;4768;42.664;23.240;2022-11-30T03:16:03;0.10;;;0.10;;
9459;SDS011;4768;42.664;23.240;2022-11-30T03:18:31;0.73;;;0.30;;
9459;SDS011;4768;42.664;23.240;2022-11-30T03:20:57;0.40;;;0.40;;
9459;SDS011;4768;42.664;23.240;2022-11-30T03:23:24;0.00;;;0.00;;
9459;SDS011;4768;42.664;23.240;2022-11-30T03:25:55;0.00;;;0.00;;
9459;SDS011;4768;42.664;23.240;2022-11-30T03:28:22;0.00;;;0.00;;
9459;SDS011;4768;42.664;23.240;2022-11-30T03:30:50;0.20;;;0.20;;
9459;SDS011;4768;42.664;23.240;2022-11-30T03:33:18;0.20;;;0.20;;
9459;SDS011;4768;42.664;23.240;2022-11-30T03:35:44;0.57;;;0.40;;
9459;SDS011;4768;42.664;23.240;2022-11-30T03:38:11;0.00;;;0.00;;
9459;SDS011;4768;42.664;23.240;2022-11-30T03:40:38;0.00;;;0.00;;
9459;SDS011;4768;42.664;23.240;2022-11-30T03:43:04;0.00;;;0.00;;
9459;SDS011;4768;42.664;23.240;2022-11-30T03:45:31;0.10;;;0.10;;
9459;SDS011;4768;42.664;23.240;2022-11-30T03:47:58;0.00;;;0.00;;
9459;SDS011;4768;42.664;23.240;2022-11-30T03:50:26;0.00;;;0.00;;
9459;SDS011;4768;42.664;23.240;2022-11-30T03:52:52;0.37;;;0.20;;
9459;SDS011;4768;42.664;23.240;2022-11-30T03:55:19;0.00;;;0.00;;
9459;SDS011;4768;42.664;23.240;2022-11-30T03:57:46;0.00;;;0.00;;
9459;SDS011;4768;42.664;23.240;2022-11-30T04:00:13;0.10;;;0.10;;
9459;SDS011;4768;42.664;23.240;2022-11-30T04:02:40;0.00;;;0.00;;
9459;SDS011;4768;42.664;23.240;2022-11-30T04:05:08;0.07;;;0.07;;
9459;SDS011;4768;42.664;23.240;2022-11-30T04:07:36;0.87;;;0.10;;
9459;SDS011;4768;42.664;23.240;2022-11-30T04:10:03;0.00;;;0.00;;
9459;SDS011;4768;42.664;23.240;2022-11-30T04:12:30;0.10;;;0.10;;
9459;SDS011;4768;42.664;23.240;2022-11-30T04:14:56;0.00;;;0.00;;
9459;SDS011;4768;42.664;23.240;2022-11-30T04:17:23;0.00;;;0.00;;
9459;SDS011;4768;42.664;23.240;2022-11-30T04:19:50;0.00;;;0.00;;
9459;SDS011;4768;42.664;23.240;2022-11-30T04:22:16;0.00;;;0.00;;
9459;SDS011;4768;42.664;23.240;2022-11-30T04:24:45;0.00;;;0.00;;
9459;SDS011;4768;42.664;23.240;2022-11-30T04:27:11;0.00;;;0.00;;
9459;SDS011;4768;42.664;23.240;2022-11-30T04:29:38;0.00;;;0.00;;
9459;SDS011;4768;42.664;23.240;2022-11-30T04:32:05;0.00;;;0.00;;
9459;SDS011;4768;42.664;23.240;2022-11-30T04:34:31;0.10;;;0.10;;
9459;SDS011;4768;42.664;23.240;2022-11-30T04:36:58;0.00;;;0.00;;
9459;SDS011;4768;42.664;23.240;2022-11-30T04:39:25;0.00;;;0.00;;
9459;SDS011;4768;42.664;23.240;2022-11-30T04:41:53;0.00;;;0.00;;
9459;SDS011;4768;42.664;23.240;2022-11-30T04:44:20;0.03;;;0.03;;
9459;SDS011;4768;42.664;23.240;2022-11-30T04:46:47;0.00;;;0.00;;
9459;SDS011;4768;42.664;23.240;2022-11-30T04:49:13;0.00;;;0.00;;
9459;SDS011;4768;42.664;23.240;2022-11-30T04:51:40;0.10;;;0.10;;
9459;SDS011;4768;42.664;23.240;2022-11-30T04:54:07;0.00;;;0.00;;
9459;SDS011;4768;42.664;23.240;2022-11-30T04:56:34;0.00;;;0.00;;
9459;SDS011;4768;42.664;23.240;2022-11-30T04:59:02;0.07;;;0.07;;
9459;SDS011;4768;42.664;23.240;2022-11-30T05:01:29;0.00;;;0.00;;
9459;SDS011;4768;42.664;23.240;2022-11-30T05:03:56;0.00;;;0.00;;
9459;SDS011;4768;42.664;23.240;2022-11-30T05:06:24;0.00;;;0.00;;
9459;SDS011;4768;42.664;23.240;2022-11-30T05:08:51;0.20;;;0.20;;
9459;SDS011;4768;42.664;23.240;2022-11-30T05:11:17;0.00;;;0.00;;
9459;SDS011;4768;42.664;23.240;2022-11-30T05:13:44;0.00;;;0.00;;
9459;SDS011;4768;42.664;23.240;2022-11-30T05:16:12;0.00;;;0.00;;
9459;SDS011;4768;42.664;23.240;2022-11-30T05:18:39;0.00;;;0.00;;
9459;SDS011;4768;42.664;23.240;2022-11-30T05:21:06;0.00;;;0.00;;
9459;SDS011;4768;42.664;23.240;2022-11-30T05:23:32;0.00;;;0.00;;
9459;SDS011;4768;42.664;23.240;2022-11-30T05:26:01;0.17;;;0.17;;
9459;SDS011;4768;42.664;23.240;2022-11-30T05:28:28;0.00;;;0.00;;
9459;SDS011;4768;42.664;23.240;2022-11-30T05:30:54;0.00;;;0.00;;
9459;SDS011;4768;42.664;23.240;2022-11-30T05:33:22;0.03;;;0.03;;
9459;SDS011;4768;42.664;23.240;2022-11-30T05:35:49;0.00;;;0.00;;
9459;SDS011;4768;42.664;23.240;2022-11-30T05:38:16;0.00;;;0.00;;
9459;SDS011;4768;42.664;23.240;2022-11-30T05:40:43;0.20;;;0.20;;
9459;SDS011;4768;42.664;23.240;2022-11-30T05:43:10;1.50;;;0.60;;
9459;SDS011;4768;42.664;23.240;2022-11-30T05:45:36;0.00;;;0.00;;
9459;SDS011;4768;42.664;23.240;2022-11-30T05:48:03;0.10;;;0.10;;
9459;SDS011;4768;42.664;23.240;2022-11-30T05:50:32;0.07;;;0.07;;
9459;SDS011;4768;42.664;23.240;2022-11-30T05:52:59;0.20;;;0.10;;
9459;SDS011;4768;42.664;23.240;2022-11-30T05:55:26;0.00;;;0.00;;
9459;SDS011;4768;42.664;23.240;2022-11-30T05:57:54;0.40;;;0.27;;
9459;SDS011;4768;42.664;23.240;2022-11-30T06:00:21;0.10;;;0.10;;
9459;SDS011;4768;42.664;23.240;2022-11-30T06:02:47;0.00;;;0.00;;
9459;SDS011;4768;42.664;23.240;2022-11-30T06:05:19;0.43;;;0.43;;
9459;SDS011;4768;42.664;23.240;2022-11-30T06:07:48;0.10;;;0.10;;
9459;SDS011;4768;42.664;23.240;2022-11-30T06:10:14;0.00;;;0.00;;
9459;SDS011;4768;42.664;23.240;2022-11-30T06:12:41;0.30;;;0.30;;
9459;SDS011;4768;42.664;23.240;2022-11-30T06:15:08;0.07;;;0.07;;
9459;SDS011;4768;42.664;23.240;2022-11-30T06:17:35;0.07;;;0.07;;
9459;SDS011;4768;42.664;23.240;2022-11-30T06:20:03;0.00;;;0.00;;
9459;SDS011;4768;42.664;23.240;2022-11-30T06:22:30;0.40;;;0.30;;
9459;SDS011;4768;42.664;23.240;2022-11-30T06:24:58;0.63;;;0.43;;
9459;SDS011;4768;42.664;23.240;2022-11-30T06:27:26;0.00;;;0.00;;
9459;SDS011;4768;42.664;23.240;2022-11-30T06:29:56;0.10;;;0.10;;
9459;SDS011;4768;42.664;23.240;2022-11-30T06:32:23;0.20;;;0.20;;
9459;SDS011;4768;42.664;23.240;2022-11-30T06:34:49;0.13;;;0.13;;
9459;SDS011;4768;42.664;23.240;2022-11-30T06:37:16;0.00;;;0.00;;
9459;SDS011;4768;42.664;23.240;2022-11-30T06:39:43;0.20;;;0.20;;
9459;SDS011;4768;42.664;23.240;2022-11-30T06:42:11;0.10;;;0.10;;
9459;SDS011;4768;42.664;23.240;2022-11-30T06:44:37;0.00;;;0.00;;
9459;SDS011;4768;42.664;23.240;2022-11-30T06:47:04;0.00;;;0.00;;
9459;SDS011;4768;42.664;23.240;2022-11-30T06:49:31;0.20;;;0.20;;
9459;SDS011;4768;42.664;23.240;2022-11-30T06:51:58;0.30;;;0.30;;
9459;SDS011;4768;42.664;23.240;2022-11-30T06:54:25;0.30;;;0.30;;
9459;SDS011;4768;42.664;23.240;2022-11-30T06:56:52;0.40;;;0.40;;
9459;SDS011;4768;42.664;23.240;2022-11-30T06:59:22;0.20;;;0.20;;
9459;SDS011;4768;42.664;23.240;2022-11-30T07:01:49;0.13;;;0.13;;
9459;SDS011;4768;42.664;23.240;2022-11-30T07:04:15;0.10;;;0.10;;
9459;SDS011;4768;42.664;23.240;2022-11-30T07:06:42;0.00;;;0.00;;
9459;SDS011;4768;42.664;23.240;2022-11-30T07:09:09;0.00;;;0.00;;
9459;SDS011;4768;42.664;23.240;2022-11-30T07:11:37;0.00;;;0.00;;
9459;SDS011;4768;42.664;23.240;2022-11-30T07:14:04;0.00;;;0.00;;
9459;SDS011;4768;42.664;23.240;2022-11-30T07:16:32;1.77;;;0.20;;
9459;SDS011;4768;42.664;23.240;2022-11-30T07:18:58;0.03;;;0.03;;
9459;SDS011;4768;42.664;23.240;2022-11-30T07:21:25;0.00;;;0.00;;
9459;SDS011;4768;42.664;23.240;2022-11-30T07:23:52;0.00;;;0.00;;
9459;SDS011;4768;42.664;23.240;2022-11-30T07:26:36;0.20;;;0.20;;
9459;SDS011;4768;42.664;23.240;2022-11-30T07:29:03;0.00;;;0.00;;
9459;SDS011;4768;42.664;23.240;2022-11-30T07:31:31;0.10;;;0.10;;
9459;SDS011;4768;42.664;23.240;2022-11-30T07:34:02;0.10;;;0.10;;
9459;SDS011;4768;42.664;23.240;2022-11-30T07:36:30;0.90;;;0.90;;
9459;SDS011;4768;42.664;23.240;2022-11-30T07:38:56;0.00;;;0.00;;
9459;SDS011;4768;42.664;23.240;2022-11-30T07:41:23;0.40;;;0.20;;
9459;SDS011;4768;42.664;23.240;2022-11-30T07:43:50;0.00;;;0.00;;
9459;SDS011;4768;42.664;23.240;2022-11-30T07:46:16;0.20;;;0.20;;
9459;SDS011;4768;42.664;23.240;2022-11-30T07:48:45;0.17;;;0.17;;
9459;SDS011;4768;42.664;23.240;2022-11-30T07:51:13;0.20;;;0.20;;
9459;SDS011;4768;42.664;23.240;2022-11-30T07:53:41;0.10;;;0.10;;
9459;SDS011;4768;42.664;23.240;2022-11-30T07:56:09;2.00;;;0.53;;
9459;SDS011;4768;42.664;23.240;2022-11-30T07:58:37;0.40;;;0.07;;
9459;SDS011;4768;42.664;23.240;2022-11-30T08:01:05;0.77;;;0.30;;
9459;SDS011;4768;42.664;23.240;2022-11-30T08:03:34;0.30;;;0.30;;
9459;SDS011;4768;42.664;23.240;2022-11-30T08:06:03;0.73;;;0.47;;
9459;SDS011;4768;42.664;23.240;2022-11-30T08:08:31;0.00;;;0.00;;
9459;SDS011;4768;42.664;23.240;2022-11-30T08:11:00;0.50;;;0.50;;
9459;SDS011;4768;42.664;23.240;2022-11-30T08:13:27;0.67;;;0.23;;
9459;SDS011;4768;42.664;23.240;2022-11-30T08:15:54;0.10;;;0.10;;
9459;SDS011;4768;42.664;23.240;2022-11-30T08:18:25;1.07;;;0.10;;
9459;SDS011;4768;42.664;23.240;2022-11-30T08:20:55;0.00;;;0.00;;
9459;SDS011;4768;42.664;23.240;2022-11-30T08:23:25;0.00;;;0.00;;
9459;SDS011;4768;42.664;23.240;2022-11-30T08:25:53;0.00;;;0.00;;
9459;SDS011;4768;42.664;23.240;2022-11-30T08:28:20;0.00;;;0.00;;
9459;SDS011;4768;42.664;23.240;2022-11-30T08:30:47;0.03;;;0.03;;
9459;SDS011;4768;42.664;23.240;2022-11-30T08:33:13;0.20;;;0.20;;
9459;SDS011;4768;42.664;23.240;2022-11-30T08:35:40;0.00;;;0.00;;
9459;SDS011;4768;42.664;23.240;2022-11-30T08:38:07;2.90;;;0.53;;
9459;SDS011;4768;42.664;23.240;2022-11-30T08:40:35;0.30;;;0.30;;
9459;SDS011;4768;42.664;23.240;2022-11-30T08:43:01;0.00;;;0.00;;
9459;SDS011;4768;42.664;23.240;2022-11-30T08:45:28;1.93;;;0.07;;
9459;SDS011;4768;42.664;23.240;2022-11-30T08:47:55;0.00;;;0.00;;
9459;SDS011;4768;42.664;23.240;2022-11-30T08:50:22;0.20;;;0.20;;
9459;SDS011;4768;42.664;23.240;2022-11-30T08:52:48;0.00;;;0.00;;
9459;SDS011;4768;42.664;23.240;2022-11-30T08:55:15;0.10;;;0.10;;
9459;SDS011;4768;42.664;23.240;2022-11-30T08:57:43;0.00;;;0.00;;
9459;SDS011;4768;42.664;23.240;2022-11-30T09:00:10;0.00;;;0.00;;
9459;SDS011;4768;42.664;23.240;2022-11-30T09:02:38;0.00;;;0.00;;
9459;SDS011;4768;42.664;23.240;2022-11-30T09:05:04;0.90;;;0.60;;
9459;SDS011;4768;42.664;23.240;2022-11-30T09:07:31;0.03;;;0.03;;
9459;SDS011;4768;42.664;23.240;2022-11-30T09:09:58;0.10;;;0.10;;
9459;SDS011;4768;42.664;23.240;2022-11-30T09:12:25;0.00;;;0.00;;
9459;SDS011;4768;42.664;23.240;2022-11-30T09:14:53;0.00;;;0.00;;
9459;SDS011;4768;42.664;23.240;2022-11-30T09:17:20;0.10;;;0.10;;
9459;SDS011;4768;42.664;23.240;2022-11-30T09:19:46;0.00;;;0.00;;
9459;SDS011;4768;42.664;23.240;2022-11-30T09:22:13;0.00;;;0.00;;
9459;SDS011;4768;42.664;23.240;2022-11-30T09:24:40;0.00;;;0.00;;
9459;SDS011;4768;42.664;23.240;2022-11-30T09:27:06;0.07;;;0.00;;
9459;SDS011;4768;42.664;23.240;2022-11-30T09:29:34;1.50;;;0.30;;
9459;SDS011;4768;42.664;23.240;2022-11-30T09:32:02;0.00;;;0.00;;
9459;SDS011;4768;42.664;23.240;2022-11-30T09:34:29;0.07;;;0.07;;
9459;SDS011;4768;42.664;23.240;2022-11-30T09:36:56;0.00;;;0.00;;
9459;SDS011;4768;42.664;23.240;2022-11-30T09:39:23;0.17;;;0.17;;
9459;SDS011;4768;42.664;23.240;2022-11-30T09:44:44;0.00;;;0.00;;
9459;SDS011;4768;42.664;23.240;2022-11-30T09:50:20;0.27;;;0.20;;
9459;SDS011;4768;42.664;23.240;2022-11-30T09:52:50;0.70;;;0.70;;
9459;SDS011;4768;42.664;23.240;2022-11-30T09:55:21;1.27;;;0.20;;
9459;SDS011;4768;42.664;23.240;2022-11-30T09:57:52;0.00;;;0.00;;
9459;SDS011;4768;42.664;23.240;2022-11-30T10:00:22;0.00;;;0.00;;
9459;SDS011;4768;42.664;23.240;2022-11-30T10:02:51;0.23;;;0.23;;
9459;SDS011;4768;42.664;23.240;2022-11-30T10:05:20;0.10;;;0.10;;
9459;SDS011;4768;42.664;23.240;2022-11-30T10:07:59;0.00;;;0.00;;
9459;SDS011;4768;42.664;23.240;2022-11-30T10:10:38;0.03;;;0.03;;
9459;SDS011;4768;42.664;23.240;2022-11-30T10:15:58;0.00;;;0.00;;
9459;SDS011;4768;42.664;23.240;2022-11-30T10:18:38;1.27;;;0.30;;
9459;SDS011;4768;42.664;23.240;2022-11-30T10:21:16;0.00;;;0.00;;
9459;SDS011;4768;42.664;23.240;2022-11-30T10:24:05;0.10;;;0.10;;
9459;SDS011;4768;42.664;23.240;2022-11-30T10:26:43;0.10;;;0.10;;
9459;SDS011;4768;42.664;23.240;2022-11-30T10:29:16;0.00;;;0.00;;
9459;SDS011;4768;42.664;23.240;2022-11-30T10:31:44;0.00;;;0.00;;
9459;SDS011;4768;42.664;23.240;2022-11-30T10:34:19;0.10;;;0.10;;
9459;SDS011;4768;42.664;23.240;2022-11-30T10:36:49;0.00;;;0.00;;
9459;SDS011;4768;42.664;23.240;2022-11-30T10:39:21;0.33;;;0.33;;
9459;SDS011;4768;42.664;23.240;2022-11-30T10:41:54;0.10;;;0.10;;
9459;SDS011;4768;42.664;23.240;2022-11-30T10:44:26;0.63;;;0.20;;
9459;SDS011;4768;42.664;23.240;2022-11-30T10:46:58;0.00;;;0.00;;
9459;SDS011;4768;42.664;23.240;2022-11-30T10:49:29;0.00;;;0.00;;
9459;SDS011;4768;42.664;23.240;2022-11-30T10:51:59;1.17;;;0.20;;
9459;SDS011;4768;42.664;23.240;2022-11-30T10:54:29;0.00;;;0.00;;
9459;SDS011;4768;42.664;23.240;2022-11-30T10:56:56;0.10;;;0.10;;
9459;SDS011;4768;42.664;23.240;2022-11-30T10:59:28;0.07;;;0.07;;
9459;SDS011;4768;42.664;23.240;2022-11-30T11:01:59;0.00;;;0.00;;
9459;SDS011;4768;42.664;23.240;2022-11-30T11:04:28;0.13;;;0.13;;
9459;SDS011;4768;42.664;23.240;2022-11-30T11:06:55;0.03;;;0.03;;
9459;SDS011;4768;42.664;23.240;2022-11-30T11:09:34;0.20;;;0.20;;
9459;SDS011;4768;42.664;23.240;2022-11-30T11:12:02;0.00;;;0.00;;
9459;SDS011;4768;42.664;23.240;2022-11-30T11:14:31;0.20;;;0.20;;
9459;SDS011;4768;42.664;23.240;2022-11-30T11:16:59;0.37;;;0.37;;
9459;SDS011;4768;42.664;23.240;2022-11-30T11:19:33;0.07;;;0.07;;
9459;SDS011;4768;42.664;23.240;2022-11-30T11:22:02;0.10;;;0.10;;
9459;SDS011;4768;42.664;23.240;2022-11-30T11:24:31;0.03;;;0.03;;
9459;SDS011;4768;42.664;23.240;2022-11-30T11:26:59;0.10;;;0.10;;
9459;SDS011;4768;42.664;23.240;2022-11-30T11:29:26;0.00;;;0.00;;
9459;SDS011;4768;42.664;23.240;2022-11-30T11:32:15;0.00;;;0.00;;
9459;SDS011;4768;42.664;23.240;2022-11-30T11:34:45;0.10;;;0.10;;
9459;SDS011;4768;42.664;23.240;2022-11-30T11:37:15;0.90;;;0.17;;
9459;SDS011;4768;42.664;23.240;2022-11-30T11:39:54;3.80;;;0.10;;
9459;SDS011;4768;42.664;23.240;2022-11-30T11:42:26;0.57;;;0.47;;
9459;SDS011;4768;42.664;23.240;2022-11-30T11:44:55;0.10;;;0.10;;
9459;SDS011;4768;42.664;23.240;2022-11-30T11:47:25;0.10;;;0.10;;
9459;SDS011;4768;42.664;23.240;2022-11-30T11:50:05;0.00;;;0.00;;
9459;SDS011;4768;42.664;23.240;2022-11-30T11:52:43;0.00;;;0.00;;
9459;SDS011;4768;42.664;23.240;2022-11-30T11:55:12;0.77;;;0.30;;
9459;SDS011;4768;42.664;23.240;2022-11-30T11:57:43;0.33;;;0.10;;
9459;SDS011;4768;42.664;23.240;2022-11-30T12:00:14;0.00;;;0.00;;
9459;SDS011;4768;42.664;23.240;2022-11-30T12:02:44;0.00;;;0.00;;
9459;SDS011;4768;42.664;23.240;2022-11-30T12:05:19;0.07;;;0.07;;
9459;SDS011;4768;42.664;23.240;2022-11-30T12:07:58;0.00;;;0.00;;
9459;SDS011;4768;42.664;23.240;2022-11-30T12:10:31;0.80;;;0.23;;
9459;SDS011;4768;42.664;23.240;2022-11-30T12:13:04;0.00;;;0.00;;
9459;SDS011;4768;42.664;23.240;2022-11-30T12:15:37;0.00;;;0.00;;
9459;SDS011;4768;42.664;23.240;2022-11-30T12:18:16;0.00;;;0.00;;
9459;SDS011;4768;42.664;23.240;2022-11-30T12:20:51;0.20;;;0.20;;
9459;SDS011;4768;42.664;23.240;2022-11-30T12:23:26;0.93;;;0.73;;
9459;SDS011;4768;42.664;23.240;2022-11-30T12:26:08;0.00;;;0.00;;
9459;SDS011;4768;42.664;23.240;2022-11-30T12:28:43;0.00;;;0.00;;
9459;SDS011;4768;42.664;23.240;2022-11-30T12:31:25;0.30;;;0.30;;
9459;SDS011;4768;42.664;23.240;2022-11-30T12:34:04;0.00;;;0.00;;
9459;SDS011;4768;42.664;23.240;2022-11-30T12:36:45;0.00;;;0.00;;
9459;SDS011;4768;42.664;23.240;2022-11-30T12:39:23;0.10;;;0.10;;
9459;SDS011;4768;42.664;23.240;2022-11-30T12:41:57;0.67;;;0.20;;
9459;SDS011;4768;42.664;23.240;2022-11-30T12:44:40;0.20;;;0.20;;
9459;SDS011;4768;42.664;23.240;2022-11-30T12:47:20;0.00;;;0.00;;
9459;SDS011;4768;42.664;23.240;2022-11-30T12:50:03;0.00;;;0.00;;
9459;SDS011;4768;42.664;23.240;2022-11-30T12:52:47;0.30;;;0.30;;
9459;SDS011;4768;42.664;23.240;2022-11-30T12:55:25;0.07;;;0.07;;
9459;SDS011;4768;42.664;23.240;2022-11-30T12:57:59;0.00;;;0.00;;
9459;SDS011;4768;42.664;23.240;2022-11-30T13:00:33;0.20;;;0.20;;
9459;SDS011;4768;42.664;23.240;2022-11-30T13:03:14;0.00;;;0.00;;
9459;SDS011;4768;42.664;23.240;2022-11-30T13:05:58;0.00;;;0.00;;
9459;SDS011;4768;42.664;23.240;2022-11-30T13:08:28;0.00;;;0.00;;
9459;SDS011;4768;42.664;23.240;2022-11-30T13:11:01;0.03;;;0.03;;
9459;SDS011;4768;42.664;23.240;2022-11-30T13:13:34;0.20;;;0.20;;
9459;SDS011;4768;42.664;23.240;2022-11-30T13:16:02;0.00;;;0.00;;
9459;SDS011;4768;42.664;23.240;2022-11-30T13:18:33;0.00;;;0.00;;
9459;SDS011;4768;42.664;23.240;2022-11-30T13:21:03;0.23;;;0.23;;
9459;SDS011;4768;42.664;23.240;2022-11-30T13:23:35;0.50;;;0.50;;
9459;SDS011;4768;42.664;23.240;2022-11-30T13:26:07;0.00;;;0.00;;
9459;SDS011;4768;42.664;23.240;2022-11-30T13:28:48;0.07;;;0.07;;
9459;SDS011;4768;42.664;23.240;2022-11-30T13:31:23;0.10;;;0.10;;
9459;SDS011;4768;42.664;23.240;2022-11-30T13:33:56;1.07;;;0.30;;
9459;SDS011;4768;42.664;23.240;2022-11-30T13:36:30;0.40;;;0.20;;
9459;SDS011;4768;42.664;23.240;2022-11-30T13:41:50;0.00;;;0.00;;
9459;SDS011;4768;42.664;23.240;2022-11-30T13:44:50;0.10;;;0.10;;
9459;SDS011;4768;42.664;23.240;2022-11-30T13:47:18;0.20;;;0.20;;
9459;SDS011;4768;42.664;23.240;2022-11-30T13:49:54;0.60;;;0.40;;
9459;SDS011;4768;42.664;23.240;2022-11-30T13:58:15;0.70;;;0.70;;
9459;SDS011;4768;42.664;23.240;2022-11-30T14:00:46;0.13;;;0.13;;
9459;SDS011;4768;42.664;23.240;2022-11-30T14:03:26;0.00;;;0.00;;
9459;SDS011;4768;42.664;23.240;2022-11-30T14:05:55;0.10;;;0.10;;
9459;SDS011;4768;42.664;23.240;2022-11-30T14:08:32;0.07;;;0.07;;
9459;SDS011;4768;42.664;23.240;2022-11-30T14:17:15;0.03;;;0.03;;
9459;SDS011;4768;42.664;23.240;2022-11-30T14:19:44;0.17;;;0.17;;
9459;SDS011;4768;42.664;23.240;2022-11-30T14:22:14;0.00;;;0.00;;
9459;SDS011;4768;42.664;23.240;2022-11-30T14:24:42;0.40;;;0.23;;
9459;SDS011;4768;42.664;23.240;2022-11-30T14:27:13;0.00;;;0.00;;
9459;SDS011;4768;42.664;23.240;2022-11-30T14:29:44;0.20;;;0.20;;
9459;SDS011;4768;42.664;23.240;2022-11-30T14:32:17;0.00;;;0.00;;
9459;SDS011;4768;42.664;23.240;2022-11-30T14:34:51;0.07;;;0.07;;
9459;SDS011;4768;42.664;23.240;2022-11-30T14:37:26;0.00;;;0.00;;
9459;SDS011;4768;42.664;23.240;2022-11-30T14:40:00;0.00;;;0.00;;
9459;SDS011;4768;42.664;23.240;2022-11-30T14:42:29;0.30;;;0.30;;
9459;SDS011;4768;42.664;23.240;2022-11-30T14:44:59;0.07;;;0.07;;
9459;SDS011;4768;42.664;23.240;2022-11-30T14:47:27;0.73;;;0.40;;
9459;SDS011;4768;42.664;23.240;2022-11-30T14:49:55;0.00;;;0.00;;
9459;SDS011;4768;42.664;23.240;2022-11-30T14:52:32;0.13;;;0.13;;
9459;SDS011;4768;42.664;23.240;2022-11-30T14:55:13;0.00;;;0.00;;
9459;SDS011;4768;42.664;23.240;2022-11-30T14:57:52;0.03;;;0.03;;
9459;SDS011;4768;42.664;23.240;2022-11-30T15:00:26;0.07;;;0.07;;
9459;SDS011;4768;42.664;23.240;2022-11-30T15:02:53;0.23;;;0.23;;
9459;SDS011;4768;42.664;23.240;2022-11-30T15:05:21;0.00;;;0.00;;
9459;SDS011;4768;42.664;23.240;2022-11-30T15:07:50;0.20;;;0.20;;
9459;SDS011;4768;42.664;23.240;2022-11-30T15:10:22;0.10;;;0.10;;
9459;SDS011;4768;42.664;23.240;2022-11-30T15:12:53;0.23;;;0.07;;
9459;SDS011;4768;42.664;23.240;2022-11-30T15:15:21;0.50;;;0.50;;
9459;SDS011;4768;42.664;23.240;2022-11-30T15:17:53;0.07;;;0.07;;
9459;SDS011;4768;42.664;23.240;2022-11-30T15:20:23;0.23;;;0.23;;
9459;SDS011;4768;42.664;23.240;2022-11-30T15:22:52;0.43;;;0.20;;
9459;SDS011;4768;42.664;23.240;2022-11-30T15:25:21;4.03;;;0.80;;
9459;SDS011;4768;42.664;23.240;2022-11-30T15:27:53;0.10;;;0.10;;
9459;SDS011;4768;42.664;23.240;2022-11-30T15:30:20;1.57;;;0.27;;
9459;SDS011;4768;42.664;23.240;2022-11-30T15:32:49;0.80;;;0.37;;
9459;SDS011;4768;42.664;23.240;2022-11-30T15:35:19;0.87;;;0.87;;
9459;SDS011;4768;42.664;23.240;2022-11-30T15:37:48;0.53;;;0.30;;
9459;SDS011;4768;42.664;23.240;2022-11-30T15:40:20;0.33;;;0.33;;